Time;durP1;ratioP1;P1;durP2;ratioP2;P2;SDS_P1;SDS_P2;PMS_P1;PMS_P2;Temp;Humidity;BMP_temperature;BMP_pressure;BME280_temperature;BME280_humidity;BME280_pressure;Samples;Min_cycle;Max_cycle;Signal;HPM_P1;HPM_P2
2023/05/24 00:02:48;;;;;;;9.68;4.88;;;23.50;53.30;;;;;;10450580;28;20199;-24
2023/05/24 00:07:49;;;;;;;10.35;5.30;;;23.50;53.40;;;;;;10449057;28;20476;-24
2023/05/24 00:12:53;;;;;;;;;;;23.50;53.60;;;;;;10447002;28;20140;-24
2023/05/24 00:17:54;;;;;;;8.68;4.57;;;23.40;53.40;;;;;;10452862;28;20032;-24
2023/05/24 00:22:56;;;;;;;10.95;5.53;;;23.40;53.60;;;;;;10452681;28;20134;-24
2023/05/24 00:27:59;;;;;;;10.95;5.28;;;23.30;53.60;;;;;;10453446;28;20140;-25
2023/05/24 00:33:01;;;;;;;9.77;4.70;;;23.30;53.70;;;;;;10452089;28;20370;-22
2023/05/24 00:38:03;;;;;;;9.95;4.47;;;23.30;53.80;;;;;;10451679;28;20158;-24
2023/05/24 00:43:06;;;;;;;10.10;4.88;;;23.10;53.60;;;;;;10463945;28;20140;-24
2023/05/24 00:48:08;;;;;;;10.70;5.03;;;23.10;53.70;;;;;;10451952;28;20567;-24
2023/05/24 00:53:11;;;;;;;10.80;4.97;;;23.10;53.70;;;;;;10452764;28;20127;-24
2023/05/24 00:58:15;;;;;;;10.02;4.40;;;23.00;53.80;;;;;;10467093;28;20092;-23
2023/05/24 01:03:18;;;;;;;8.07;3.95;;;23.00;53.60;;;;;;10451079;28;20088;-24
2023/05/24 01:08:31;;;;;;;6.53;3.72;;;22.80;53.80;;;;;;10456268;28;20044;-24
2023/05/24 01:13:46;;;;;;;10.35;4.22;;;22.80;54.00;;;;;;10458923;28;20061;-24
2023/05/24 01:18:52;;;;;;;6.97;3.63;;;22.80;53.50;;;;;;10454450;28;20056;-24
2023/05/24 01:24:05;;;;;;;6.85;3.83;;;22.70;54.00;;;;;;10446497;28;20080;-25
2023/05/24 01:29:09;;;;;;;7.07;3.53;;;22.70;53.70;;;;;;10449544;28;20037;-24
2023/05/24 01:34:11;;;;;;;7.60;3.83;;;22.70;54.00;;;;;;10447468;28;20132;-23
2023/05/24 01:39:13;;;;;;;7.95;3.80;;;22.60;53.90;;;;;;10451962;28;20065;-24
2023/05/24 01:44:26;;;;;;;7.97;3.53;;;22.60;54.20;;;;;;10451381;28;20135;-24
2023/05/24 01:49:36;;;;;;;7.70;3.55;;;22.40;54.30;;;;;;10456267;28;20065;-23
2023/05/24 01:54:42;;;;;;;5.10;2.95;;;22.50;54.20;;;;;;10454389;28;20077;-24
2023/05/24 01:59:47;;;;;;;7.97;3.30;;;22.40;54.20;;;;;;10450226;28;20618;-24
2023/05/24 02:04:49;;;;;;;5.90;3.22;;;22.30;54.40;;;;;;10442735;28;20490;-23
2023/05/24 02:09:51;;;;;;;5.88;2.97;;;22.30;54.40;;;;;;10444495;28;20500;-24
2023/05/24 02:14:56;;;;;;;4.68;2.80;;;22.40;54.30;;;;;;10447378;28;20128;-23
2023/05/24 02:19:57;;;;;;;6.72;3.33;;;22.30;54.20;;;;;;10450887;28;20055;-24
2023/05/24 02:24:59;;;;;;;4.63;2.67;;;22.30;54.30;;;;;;10453971;28;20136;-23
2023/05/24 02:30:03;;;;;;;5.10;2.70;;;22.30;54.30;;;;;;10446213;28;20110;-24
2023/05/24 02:35:06;;;;;;;5.05;2.45;;;22.30;54.30;;;;;;10444861;28;20092;-24
2023/05/24 02:40:09;;;;;;;6.63;2.80;;;22.20;54.30;;;;;;10454660;28;20044;-24
2023/05/24 02:45:12;;;;;;;5.00;2.63;;;22.20;54.40;;;;;;10452283;28;20069;-24
2023/05/24 02:50:14;;;;;;;3.85;2.28;;;22.20;54.30;;;;;;10446195;28;20084;-25
2023/05/24 02:55:16;;;;;;;4.80;2.63;;;22.10;54.60;;;;;;10450292;28;20135;-24
2023/05/24 03:15:30;;;;;;;4.78;2.45;;;22.30;53.40;;;;;;10518772;27;20122;-22
2023/05/24 03:20:32;;;;;;;5.20;2.67;;;22.10;53.90;;;;;;10517762;28;20637;-24
2023/05/24 03:25:34;;;;;;;;;;;22.00;53.90;;;;;;10525079;28;20513;-24
2023/05/24 03:30:37;;;;;;;4.57;2.03;;;22.10;54.60;;;;;;10529809;28;19926;-23
2023/05/24 03:35:39;;;;;;;6.65;1.85;;;22.00;54.30;;;;;;10529415;28;20536;-23
2023/05/24 03:40:41;;;;;;;4.20;2.17;;;22.10;54.40;;;;;;10518623;28;20044;-23
2023/05/24 03:45:44;;;;;;;4.55;2.15;;;22.00;54.40;;;;;;10522595;28;20129;-23
2023/05/24 03:50:46;;;;;;;3.65;1.80;;;22.20;55.00;;;;;;10510673;28;20040;-23
2023/05/24 03:55:48;;;;;;;4.70;1.90;;;22.10;54.40;;;;;;10505275;28;20098;-23
2023/05/24 04:00:51;;;;;;;4.90;1.85;;;22.00;54.50;;;;;;10519884;28;20148;-22
2023/05/24 04:05:53;;;;;;;5.22;2.22;;;22.10;54.30;;;;;;10525492;28;20508;-24
2023/05/24 04:10:55;;;;;;;3.28;1.52;;;22.30;54.30;;;;;;10523809;28;20145;-24
2023/05/24 04:15:58;;;;;;;5.07;1.60;;;22.40;54.20;;;;;;10520403;28;20612;-24
2023/05/24 04:21:00;;;;;;;3.83;1.70;;;22.40;54.10;;;;;;10508487;28;20963;-23
2023/05/24 04:26:02;;;;;;;3.38;1.58;;;22.40;54.10;;;;;;10479420;28;20076;-22
2023/05/24 04:31:06;;;;;;;5.10;1.60;;;22.40;54.10;;;;;;10484025;28;20147;-24
2023/05/24 04:36:10;;;;;;;5.28;1.50;;;22.30;54.30;;;;;;10485665;28;20107;-23
2023/05/24 04:41:12;;;;;;;4.93;1.42;;;21.70;54.70;;;;;;10483797;28;20043;-23
2023/05/24 04:46:15;;;;;;;3.55;1.42;;;21.70;54.80;;;;;;10487558;28;20397;-23
2023/05/24 04:51:17;;;;;;;4.22;1.02;;;21.60;55.50;;;;;;10482493;28;20055;-24
2023/05/24 04:56:19;;;;;;;3.35;1.23;;;21.60;55.00;;;;;;10493375;28;20070;-24
2023/05/24 05:01:22;;;;;;;3.90;1.67;;;21.60;55.50;;;;;;10484593;28;20722;-23
2023/05/24 05:06:24;;;;;;;4.20;1.52;;;21.70;55.20;;;;;;10484930;28;20405;-24
2023/05/24 05:11:26;;;;;;;;;;;21.60;55.10;;;;;;10477605;28;20377;-24
2023/05/24 05:16:30;;;;;;;4.43;1.25;;;21.40;55.70;;;;;;10487554;28;20361;-23
2023/05/24 05:21:32;;;;;;;3.28;1.25;;;21.50;55.50;;;;;;10491154;28;20036;-24
2023/05/24 05:26:35;;;;;;;4.07;0.90;;;21.20;56.10;;;;;;10493136;28;20126;-23
2023/05/24 05:31:38;;;;;;;5.63;1.38;;;21.90;54.60;;;;;;10484395;28;20059;-24
2023/05/24 05:36:41;;;;;;;4.07;1.50;;;20.80;56.50;;;;;;10480111;28;20045;-23
2023/05/24 05:41:44;;;;;;;3.40;1.10;;;21.10;56.30;;;;;;10493320;28;20506;-24
2023/05/24 05:46:47;;;;;;;4.47;1.60;;;21.00;57.40;;;;;;10482482;28;20092;-24
2023/05/24 05:51:51;;;;;;;5.20;1.20;;;21.40;55.80;;;;;;10484678;28;20068;-24
2023/05/24 05:56:53;;;;;;;4.22;1.63;;;21.20;56.30;;;;;;10485307;28;20559;-24
2023/05/24 06:01:56;;;;;;;5.25;1.73;;;21.60;55.20;;;;;;10479768;28;20049;-24
2023/05/24 06:06:58;;;;;;;2.95;1.15;;;21.20;55.70;;;;;;10488052;28;20044;-23
2023/05/24 06:12:00;;;;;;;6.60;1.90;;;21.30;56.60;;;;;;10481352;28;20581;-22
2023/05/24 06:17:04;;;;;;;3.47;1.27;;;20.60;57.30;;;;;;10484842;28;20070;-25
2023/05/24 06:22:06;;;;;;;7.53;1.85;;;21.60;56.00;;;;;;10485521;28;20050;-25
2023/05/24 06:27:08;;;;;;;6.95;1.77;;;20.80;56.80;;;;;;10483678;28;20931;-25
2023/05/24 06:32:11;;;;;;;4.10;1.27;;;21.60;55.60;;;;;;10479399;28;20056;-24
2023/05/24 06:37:14;;;;;;;5.43;1.10;;;21.50;55.50;;;;;;10481832;28;20102;-25
2023/05/24 06:42:16;;;;;;;3.35;1.13;;;21.90;54.90;;;;;;10481565;28;20524;-24
2023/05/24 06:47:19;;;;;;;2.88;1.30;;;21.40;56.10;;;;;;10485343;28;20048;-24
2023/05/24 06:52:21;;;;;;;5.75;1.27;;;21.70;55.60;;;;;;10488309;28;20048;-23
2023/05/24 06:57:23;;;;;;;;;;;21.30;56.40;;;;;;10497821;28;20065;-25
2023/05/24 07:02:27;;;;;;;10.53;1.77;;;20.80;58.30;;;;;;10475998;28;19950;-24
2023/05/24 07:07:29;;;;;;;12.13;2.88;;;20.30;58.10;;;;;;10476329;28;20044;-25
2023/05/24 07:12:32;;;;;;;5.63;1.67;;;21.30;56.30;;;;;;10484754;28;20135;-25
2023/05/24 07:17:35;;;;;;;8.48;1.88;;;21.60;55.80;;;;;;10484907;28;20109;-25
2023/05/24 07:22:37;;;;;;;5.65;1.58;;;21.80;55.10;;;;;;10474441;28;20044;-26
2023/05/24 07:27:39;;;;;;;7.78;1.85;;;21.90;54.90;;;;;;10480084;28;20071;-25
2023/05/24 07:32:42;;;;;;;6.10;1.85;;;21.70;54.70;;;;;;10470008;28;20076;-23
2023/05/24 07:37:45;;;;;;;4.55;1.70;;;21.20;56.60;;;;;;10483256;28;20139;-25
2023/05/24 07:42:47;;;;;;;9.23;1.95;;;21.70;55.40;;;;;;10472736;28;20133;-24
2023/05/24 07:47:50;;;;;;;;;;;21.90;54.30;;;;;;10484535;28;20045;-25
2023/05/24 07:52:52;;;;;;;5.53;1.90;;;21.80;55.40;;;;;;10487928;28;19921;-25
2023/05/24 07:57:55;;;;;;;3.30;1.17;;;22.10;54.80;;;;;;10484241;28;20144;-25
2023/05/24 08:02:58;;;;;;;5.82;1.60;;;22.10;54.80;;;;;;10475872;28;20505;-24
2023/05/24 08:08:00;;;;;;;3.45;1.40;;;22.20;54.90;;;;;;10490790;28;20122;-25
2023/05/24 08:13:03;;;;;;;8.25;1.85;;;22.30;54.60;;;;;;10489385;28;20113;-25
2023/05/24 08:18:08;;;;;;;2.55;1.20;;;22.10;53.70;;;;;;10482708;28;20040;-25
2023/05/24 08:23:10;;;;;;;4.25;1.30;;;22.20;55.00;;;;;;10489434;28;20049;-24
2023/05/24 08:28:12;;;;;;;5.60;1.33;;;22.50;54.30;;;;;;10493810;28;20055;-24
2023/05/24 08:33:15;;;;;;;3.10;1.15;;;22.40;54.30;;;;;;10498983;28;20143;-25
2023/05/24 08:38:17;;;;;;;2.80;1.05;;;22.50;54.20;;;;;;10489541;28;20048;-25
2023/05/24 08:43:21;;;;;;;3.75;1.17;;;22.50;53.90;;;;;;10496956;28;20075;-25
2023/05/24 08:48:25;;;;;;;2.33;1.13;;;22.50;54.30;;;;;;10490603;28;20073;-24
2023/05/24 08:53:27;;;;;;;3.70;0.85;;;22.70;54.20;;;;;;10503602;28;20044;-24
2023/05/24 08:58:29;;;;;;;;;;;22.90;53.40;;;;;;10491717;28;20465;-24
2023/05/24 09:03:34;;;;;;;2.45;0.90;;;22.80;53.80;;;;;;10494813;28;20460;-23
2023/05/24 09:08:37;;;;;;;2.90;1.13;;;22.20;54.70;;;;;;10493429;28;20044;-24
2023/05/24 09:13:39;;;;;;;4.68;1.02;;;22.70;54.00;;;;;;10489233;28;20070;-23
2023/05/24 09:18:43;;;;;;;8.65;1.83;;;21.60;56.60;;;;;;10488178;28;20051;-22
2023/05/24 09:23:45;;;;;;;3.22;1.20;;;22.00;50.50;;;;;;10487804;28;20405;-24
2023/05/24 09:28:49;;;;;;;3.05;1.35;;;22.70;54.30;;;;;;10488597;28;20072;-25
2023/05/24 09:33:52;;;;;;;4.93;1.77;;;21.90;55.60;;;;;;10490621;28;20084;-24
2023/05/24 09:39:09;;;;;;;7.20;1.88;;;20.70;58.50;;;;;;10486873;28;20124;-23
2023/05/24 09:44:13;;;;;;;12.05;2.10;;;21.10;58.60;;;;;;10482194;28;20056;-24
2023/05/24 09:49:17;;;;;;;6.10;1.77;;;19.40;59.80;;;;;;10482686;28;20120;-24
2023/05/24 09:54:19;;;;;;;8.25;1.70;;;21.50;56.00;;;;;;10485349;28;20079;-24
2023/05/24 09:59:21;;;;;;;7.15;1.77;;;19.10;59.50;;;;;;10486473;28;20701;-24
2023/05/24 10:04:33;;;;;;;2.55;1.20;;;21.30;57.50;;;;;;10481808;28;20048;-24
2023/05/24 10:09:35;;;;;;;2.33;0.93;;;20.90;55.20;;;;;;10490406;28;20072;-24
2023/05/24 10:14:38;;;;;;;;;;;22.30;55.40;;;;;;10483433;28;20063;-23
2023/05/24 10:19:41;;;;;;;10.40;1.80;;;21.50;56.20;;;;;;10475033;28;20020;-24
2023/05/24 10:24:46;;;;;;;3.00;1.30;;;22.40;52.40;;;;;;10482869;28;20451;-23
2023/05/24 10:29:58;;;;;;;2.65;1.00;;;22.20;55.00;;;;;;10485972;28;20044;-24
2023/05/24 10:35:01;;;;;;;9.65;1.65;;;22.70;53.80;;;;;;10481247;28;20060;-23
2023/05/24 10:40:05;;;;;;;2.53;1.13;;;23.10;52.10;;;;;;10484037;28;20447;-23
2023/05/24 10:45:31;;;;;;;4.07;1.08;;;22.90;53.80;;;;;;10479716;28;20082;-25
2023/05/24 10:50:34;;;;;;;8.98;1.50;;;23.50;52.70;;;;;;10480130;28;20044;-23
2023/05/24 10:55:52;;;;;;;2.78;1.08;;;22.90;52.80;;;;;;10480663;28;20447;-24
2023/05/24 11:00:54;;;;;;;5.68;1.60;;;22.10;54.70;;;;;;10478589;28;20045;-24
2023/05/24 11:05:58;;;;;;;5.32;1.60;;;21.70;56.70;;;;;;10484321;28;20051;-23
2023/05/24 11:11:08;;;;;;;5.95;1.85;;;21.30;49.90;;;;;;10486632;28;20048;-23
2023/05/24 11:16:30;;;;;;;6.97;1.63;;;20.70;57.10;;;;;;10485183;28;20509;-22
2023/05/24 11:21:34;;;;;;;5.00;1.50;;;21.90;56.70;;;;;;10485258;28;20447;-23
2023/05/24 11:26:36;;;;;;;3.88;1.52;;;22.10;53.00;;;;;;10503123;28;20185;-24
2023/05/24 11:31:38;;;;;;;;;;;23.30;54.40;;;;;;10484723;28;20048;-24
2023/05/24 11:36:42;;;;;;;5.05;1.33;;;22.10;53.80;;;;;;10493148;28;20031;-24
2023/05/24 11:41:44;;;;;;;4.95;1.27;;;22.80;54.90;;;;;;10496214;28;20131;-23
2023/05/24 11:46:46;;;;;;;8.63;1.70;;;22.50;54.60;;;;;;10491682;28;20090;-23
2023/05/24 11:51:51;;;;;;;7.53;1.92;;;22.90;52.50;;;;;;10490666;28;20087;-25
2023/05/24 11:56:53;;;;;;;5.18;1.20;;;22.70;52.80;;;;;;10495834;28;20393;-24
2023/05/24 12:01:59;;;;;;;4.65;1.70;;;22.80;54.50;;;;;;10482008;28;20049;-24
2023/05/24 12:07:03;;;;;;;7.55;1.60;;;23.40;52.70;;;;;;10498655;28;20052;-24
2023/05/24 12:12:06;;;;;;;7.63;1.58;;;23.50;50.30;;;;;;10485075;28;20055;-24
2023/05/24 12:17:15;;;;;;;10.63;2.15;;;22.50;54.60;;;;;;10480594;28;20052;-24
2023/05/24 12:22:18;;;;;;;4.60;1.08;;;22.30;51.10;;;;;;10489712;28;20041;-24
2023/05/24 12:27:25;;;;;;;5.40;1.90;;;22.80;52.10;;;;;;10483189;28;20131;-24
2023/05/24 12:32:27;;;;;;;3.72;1.27;;;22.10;51.10;;;;;;10499957;28;20135;-24
2023/05/24 12:37:31;;;;;;;;;;;23.30;51.90;;;;;;10493654;28;20131;-24
2023/05/24 12:42:35;;;;;;;8.65;2.08;;;23.30;52.50;;;;;;10493040;28;19921;-24
2023/05/24 12:47:37;;;;;;;5.60;1.83;;;23.20;51.80;;;;;;10489167;28;20052;-24
2023/05/24 12:52:40;;;;;;;;;;;23.50;51.70;;;;;;10493967;28;20072;-24
2023/05/24 12:57:43;;;;;;;5.47;1.70;;;22.90;51.50;;;;;;10481627;28;20278;-24
2023/05/24 13:02:44;;;;;;;5.70;1.15;;;23.80;53.70;;;;;;10473373;28;20134;-24
2023/05/24 13:07:48;;;;;;;;;;;24.30;52.50;;;;;;10493572;28;20138;-24
2023/05/24 13:12:49;;;;;;;3.72;1.25;;;23.40;53.00;;;;;;10477737;28;20003;-23
2023/05/24 13:17:52;;;;;;;;;;;23.10;55.40;;;;;;10483741;28;20106;-25
2023/05/24 13:22:55;;;;;;;;;;;23.20;51.60;;;;;;10487297;28;19971;-26
2023/05/24 13:27:57;;;;;;;4.22;1.75;;;24.30;53.90;;;;;;10467948;28;19942;-24
2023/05/24 13:32:58;;;;;;;;;;;24.70;51.30;;;;;;10486237;28;20084;-25
2023/05/24 13:38:02;;;;;;;5.40;1.90;;;24.40;51.90;;;;;;10481312;28;19924;-24
2023/05/24 13:43:03;;;;;;;7.82;1.73;;;24.70;52.30;;;;;;10478586;28;20060;-24
2023/05/24 13:48:05;;;;;;;4.65;1.27;;;25.00;51.40;;;;;;10480490;28;20045;-24
2023/05/24 13:53:09;;;;;;;3.45;1.30;;;24.60;51.40;;;;;;10491562;28;20179;-24
2023/05/24 13:58:11;;;;;;;4.32;1.52;;;24.30;53.60;;;;;;10480681;28;20055;-26
2023/05/24 14:03:14;;;;;;;3.05;1.10;;;25.20;51.50;;;;;;10494252;28;20040;-22
2023/05/24 14:08:17;;;;;;;8.00;1.92;;;25.50;52.60;;;;;;10493776;28;20430;-24
2023/05/24 14:13:19;;;;;;;9.38;1.90;;;25.00;52.50;;;;;;10473497;28;20103;-25
2023/05/24 14:18:21;;;;;;;13.90;2.20;;;25.00;50.20;;;;;;10477847;28;20047;-24
2023/05/24 14:23:24;;;;;;;;;;;25.30;50.80;;;;;;10478121;28;20127;-24
2023/05/24 14:28:26;;;;;;;6.20;1.50;;;25.40;49.60;;;;;;10487197;28;19927;-24
2023/05/24 14:33:28;;;;;;;6.70;2.03;;;26.00;52.70;;;;;;10490604;28;20049;-24
2023/05/24 14:38:31;;;;;;;6.18;1.73;;;24.60;50.80;;;;;;10488261;28;20457;-24
2023/05/24 14:43:33;;;;;;;5.28;1.63;;;25.90;52.90;;;;;;10480745;28;20040;-24
2023/05/24 14:48:36;;;;;;;2.85;1.52;;;25.70;52.70;;;;;;10500122;28;20068;-24
2023/05/24 14:53:39;;;;;;;5.90;1.38;;;25.50;52.90;;;;;;10481727;28;20048;-24
2023/05/24 14:58:41;;;;;;;2.97;1.35;;;25.80;53.30;;;;;;10492179;28;20551;-24
2023/05/24 15:03:43;;;;;;;4.32;1.35;;;26.00;54.10;;;;;;10482414;28;20052;-23
2023/05/24 15:08:46;;;;;;;3.40;1.27;;;26.50;52.90;;;;;;10485018;28;20128;-23
2023/05/24 15:13:48;;;;;;;3.50;1.58;;;26.50;52.60;;;;;;10469661;28;20138;-30
2023/05/24 15:18:50;;;;;;;4.85;1.40;;;26.70;55.70;;;;;;10480113;28;20132;-23
2023/05/24 15:23:53;;;;;;;5.53;1.20;;;26.90;52.90;;;;;;10487081;28;20106;-23
2023/05/24 15:28:57;;;;;;;4.70;1.35;;;27.00;53.80;;;;;;10480441;28;20059;-23
2023/05/24 15:33:58;;;;;;;4.97;1.30;;;26.40;54.30;;;;;;10492451;28;20052;-24
2023/05/24 15:39:02;;;;;;;6.47;1.60;;;26.70;55.80;;;;;;10478470;28;20050;-24
2023/05/24 15:44:07;;;;;;;5.03;1.30;;;27.00;53.50;;;;;;10477338;28;20477;-22
2023/05/24 15:49:09;;;;;;;7.30;1.35;;;26.70;52.60;;;;;;10483790;28;20453;-23
2023/05/24 15:54:12;;;;;;;5.25;1.30;;;26.70;53.00;;;;;;10477000;28;20052;-23
2023/05/24 15:59:14;;;;;;;8.20;1.42;;;27.30;53.70;;;;;;10488143;28;20505;-24
2023/05/24 16:04:16;;;;;;;1.85;1.17;;;27.50;52.50;;;;;;10472892;28;20059;-24
2023/05/24 16:09:19;;;;;;;2.55;1.20;;;27.80;54.40;;;;;;10481918;28;20128;-24
2023/05/24 16:14:21;;;;;;;6.03;1.55;;;27.80;51.90;;;;;;10476758;28;20155;-24
2023/05/24 16:19:22;;;;;;;8.57;1.55;;;27.40;45.80;;;;;;10484200;28;20068;-23
2023/05/24 16:24:26;;;;;;;4.05;1.60;;;27.90;53.90;;;;;;10489374;28;20129;-25
2023/05/24 16:29:29;;;;;;;5.68;1.60;;;28.40;55.00;;;;;;10494473;28;20465;-24
2023/05/24 16:34:30;;;;;;;3.60;1.13;;;28.40;55.30;;;;;;10488041;28;20118;-24
2023/05/24 16:39:36;;;;;;;11.07;1.92;;;28.00;55.70;;;;;;10477630;28;20068;-26
2023/05/24 16:44:38;;;;;;;7.03;1.52;;;28.70;56.30;;;;;;10491781;28;20084;-24
2023/05/24 16:49:40;;;;;;;4.80;3.33;;;28.80;55.30;;;;;;10479820;28;20075;-24
2023/05/24 16:54:43;;;;;;;6.82;3.50;;;29.30;55.50;;;;;;10482405;28;20146;-24
2023/05/24 16:59:47;;;;;;;6.20;2.28;;;29.70;50.80;;;;;;10487643;28;20043;-26
2023/05/24 17:04:48;;;;;;;6.85;1.67;;;29.30;60.20;;;;;;10486660;28;20068;-24
2023/05/24 17:09:52;;;;;;;3.28;1.65;;;28.70;61.00;;;;;;10484480;28;20140;-24
2023/05/24 17:14:54;;;;;;;9.48;5.47;;;28.90;58.30;;;;;;10488292;28;20135;-28
2023/05/24 17:19:55;;;;;;;8.55;3.63;;;27.50;64.00;;;;;;10490463;28;20054;-24
2023/05/24 17:24:58;;;;;;;7.03;1.90;;;28.10;52.50;;;;;;10483791;28;20481;-24
2023/05/24 17:30:00;;;;;;;4.22;2.72;;;28.90;64.60;;;;;;10486121;28;20041;-24
2023/05/24 17:35:02;;;;;;;6.72;2.70;;;28.80;62.30;;;;;;10491440;28;20040;-25
2023/05/24 17:40:07;;;;;;;4.50;1.63;;;29.30;61.30;;;;;;10491105;28;20044;-24
2023/05/24 17:45:10;;;;;;;4.30;2.78;;;29.60;59.10;;;;;;10478670;28;20478;-24
2023/05/24 17:50:12;;;;;;;10.18;2.63;;;29.50;59.20;;;;;;10479624;28;20041;-23
2023/05/24 17:55:15;;;;;;;9.77;1.70;;;29.70;59.90;;;;;;10489024;28;20076;-23
2023/05/24 18:00:18;;;;;;;8.27;2.47;;;29.40;58.50;;;;;;10488027;28;20546;-24
2023/05/24 18:05:20;;;;;;;4.32;1.50;;;28.70;49.70;;;;;;10484860;28;20063;-24
2023/05/24 18:10:23;;;;;;;4.68;1.20;;;29.40;55.50;;;;;;10471071;28;20051;-24
2023/05/24 18:15:25;;;;;;;4.32;2.03;;;29.40;59.00;;;;;;10484408;28;20059;-24
2023/05/24 18:20:27;;;;;;;4.57;2.15;;;29.70;57.50;;;;;;10481869;28;20501;-26
2023/05/24 18:25:30;;;;;;;5.70;1.42;;;29.50;57.10;;;;;;10473109;28;20563;-24
2023/05/24 18:30:32;;;;;;;3.17;1.15;;;29.40;57.20;;;;;;10472751;28;20080;-24
2023/05/24 18:35:34;;;;;;;4.13;1.58;;;29.40;57.70;;;;;;10473137;28;20543;-25
2023/05/24 18:40:37;;;;;;;3.33;1.48;;;29.60;60.10;;;;;;10471148;28;20553;-23
2023/05/24 18:45:39;;;;;;;6.28;2.00;;;29.60;57.60;;;;;;10481995;28;20131;-22
2023/05/24 18:50:40;;;;;;;4.15;1.58;;;29.00;58.90;;;;;;10482437;28;20139;-24
2023/05/24 18:55:45;;;;;;;5.47;1.60;;;29.50;58.30;;;;;;10479747;28;20056;-23
2023/05/24 19:00:49;;;;;;;2.30;1.33;;;29.10;58.80;;;;;;10483808;28;20135;-23
2023/05/24 19:05:50;;;;;;;4.07;1.60;;;29.30;58.40;;;;;;10480516;28;20097;-23
2023/05/24 19:10:54;;;;;;;3.28;1.17;;;29.40;58.80;;;;;;10470576;28;20044;-23
2023/05/24 19:15:56;;;;;;;4.60;1.40;;;29.40;58.40;;;;;;10460746;28;20049;-23
2023/05/24 19:20:58;;;;;;;4.75;1.50;;;29.20;58.20;;;;;;10477256;28;20045;-24
2023/05/24 19:26:01;;;;;;;7.57;1.90;;;29.10;57.80;;;;;;10480413;28;20072;-21
2023/05/24 19:31:03;;;;;;;8.23;1.60;;;29.00;60.40;;;;;;10472721;28;20049;-23
2023/05/24 19:36:06;;;;;;;4.10;1.52;;;28.70;58.70;;;;;;10486709;28;20144;-24
2023/05/24 19:41:09;;;;;;;3.15;1.50;;;28.90;57.80;;;;;;10463658;28;20539;-22
2023/05/24 19:46:13;;;;;;;6.32;1.50;;;28.70;58.20;;;;;;10479698;28;20485;-24
2023/05/24 19:51:15;;;;;;;3.88;1.17;;;28.40;58.50;;;;;;10474178;28;20049;-24
2023/05/24 19:56:19;;;;;;;5.13;1.15;;;28.60;58.20;;;;;;10486145;28;20083;-23
2023/05/24 20:01:21;;;;;;;3.63;1.40;;;28.60;57.70;;;;;;10487664;28;20060;-22
2023/05/24 20:06:23;;;;;;;5.13;1.15;;;28.30;58.40;;;;;;10490629;28;20048;-23
2023/05/24 20:11:26;;;;;;;3.10;1.27;;;28.20;57.80;;;;;;10491770;28;20072;-23
2023/05/24 20:16:29;;;;;;;2.25;1.20;;;28.00;57.90;;;;;;10476929;28;20052;-24
2023/05/24 20:21:31;;;;;;;3.28;1.30;;;28.00;57.40;;;;;;10492279;28;20048;-23
2023/05/24 20:26:35;;;;;;;5.30;2.20;;;28.00;57.30;;;;;;10487079;28;20050;-26
2023/05/24 20:31:37;;;;;;;3.22;1.33;;;27.90;56.90;;;;;;10482629;28;20040;-25
2023/05/24 20:36:39;;;;;;;4.50;1.25;;;27.70;57.20;;;;;;10485457;28;20970;-23
2023/05/24 20:41:42;;;;;;;9.38;1.60;;;27.40;58.10;;;;;;10493043;28;20048;-23
2023/05/24 20:46:44;;;;;;;3.80;1.30;;;27.20;57.30;;;;;;10489702;28;20140;-27
2023/05/24 20:51:46;;;;;;;2.80;1.38;;;27.00;58.20;;;;;;10494736;28;20246;-24
2023/05/24 20:56:49;;;;;;;4.55;1.40;;;27.40;57.40;;;;;;10488106;28;20076;-22
2023/05/24 21:01:51;;;;;;;2.50;1.13;;;27.30;57.30;;;;;;10487387;28;20056;-24
2023/05/24 21:06:53;;;;;;;3.15;1.30;;;27.40;57.10;;;;;;10499520;28;20131;-23
2023/05/24 21:11:56;;;;;;;3.88;1.60;;;27.20;55.80;;;;;;10489763;28;20714;-27
2023/05/24 21:16:58;;;;;;;3.45;1.38;;;26.80;58.10;;;;;;10486169;28;20135;-24
2023/05/24 21:22:00;;;;;;;5.22;1.60;;;27.00;57.50;;;;;;10476555;28;20059;-23
2023/05/24 21:27:05;;;;;;;5.57;1.73;;;26.80;56.80;;;;;;10493640;28;20067;-23
2023/05/24 21:32:07;;;;;;;4.35;1.95;;;27.00;57.00;;;;;;10485502;28;20052;-23
2023/05/24 21:37:09;;;;;;;3.50;1.73;;;27.00;56.80;;;;;;10486288;28;20047;-24
2023/05/24 21:42:12;;;;;;;2.70;1.40;;;26.80;57.00;;;;;;10486866;28;20052;-22
2023/05/24 21:47:14;;;;;;;3.97;1.70;;;26.70;57.00;;;;;;10467036;28;20036;-23
2023/05/24 21:52:16;;;;;;;3.83;1.98;;;26.50;57.50;;;;;;10495601;28;20393;-23
2023/05/24 21:57:19;;;;;;;3.58;1.80;;;26.60;57.10;;;;;;10484623;28;20139;-23
2023/05/24 22:02:21;;;;;;;4.65;2.15;;;26.70;56.70;;;;;;10479298;28;20064;-23
2023/05/24 22:07:23;;;;;;;2.97;1.65;;;26.70;56.60;;;;;;10483451;28;20051;-23
2023/05/24 22:12:26;;;;;;;3.90;1.73;;;26.60;56.70;;;;;;10504155;28;20045;-24
2023/05/24 22:17:31;;;;;;;3.42;2.05;;;26.50;56.70;;;;;;10487161;28;20133;-21
2023/05/24 22:22:33;;;;;;;3.33;1.90;;;26.40;56.70;;;;;;10476400;28;20068;-23
2023/05/24 22:27:36;;;;;;;4.57;2.20;;;26.40;56.60;;;;;;10481097;28;20486;-23
2023/05/24 22:32:38;;;;;;;4.20;2.60;;;26.30;56.60;;;;;;10496950;28;20048;-23
2023/05/24 22:37:40;;;;;;;5.78;2.60;;;26.30;56.60;;;;;;10492302;28;20044;-22
2023/05/24 22:42:43;;;;;;;5.30;2.35;;;26.20;56.70;;;;;;10481181;28;20675;-23
2023/05/24 22:47:47;;;;;;;4.43;2.22;;;26.10;56.50;;;;;;10485696;28;20049;-23
2023/05/24 22:52:49;;;;;;;3.53;2.00;;;26.10;56.60;;;;;;10479845;28;20045;-23
2023/05/24 22:57:52;;;;;;;4.85;1.85;;;26.00;56.60;;;;;;10491515;28;20044;-24
2023/05/24 23:02:54;;;;;;;5.40;1.88;;;25.80;56.90;;;;;;10487712;28;20056;-23
2023/05/24 23:07:57;;;;;;;2.70;2.05;;;25.80;56.50;;;;;;10487996;28;20166;-23
2023/05/24 23:13:00;;;;;;;3.42;1.88;;;25.80;56.50;;;;;;10486491;28;20064;-23
2023/05/24 23:18:04;;;;;;;3.28;2.15;;;25.70;56.70;;;;;;10473527;28;20051;-23
2023/05/24 23:23:07;;;;;;;4.00;2.42;;;25.60;56.70;;;;;;10489531;28;20037;-23
2023/05/24 23:28:10;;;;;;;4.72;2.28;;;25.50;57.30;;;;;;10478610;28;20049;-24
2023/05/24 23:33:12;;;;;;;3.00;1.77;;;25.50;56.60;;;;;;10492357;28;20375;-21
2023/05/24 23:38:14;;;;;;;3.25;1.85;;;25.50;56.60;;;;;;10493827;28;20063;-24
2023/05/24 23:43:17;;;;;;;4.07;1.80;;;25.40;56.30;;;;;;10486769;28;20473;-23
2023/05/24 23:48:20;;;;;;;5.00;2.28;;;25.30;56.50;;;;;;10481798;28;20084;-24
2023/05/24 23:53:22;;;;;;;5.43;1.83;;;25.30;56.40;;;;;;10482657;28;20564;-23
2023/05/24 23:58:25;;;;;;;3.75;2.15;;;25.20;56.50;;;;;;10487192;28;20048;-21
